createdAt,value
2023-03-31T00:03:51.247Z,15.87
2023-03-31T00:08:54.823Z,17.03
2023-03-31T00:13:58.034Z,14.80
2023-03-31T00:19:02.491Z,14.70
2023-03-31T00:24:07.292Z,15.67
2023-03-31T00:29:13.403Z,17.73
2023-03-31T00:34:16.651Z,16.40
2023-03-31T00:39:20.467Z,14.80
2023-03-31T00:44:29.660Z,16.27
2023-03-31T00:49:41.048Z,15.47
2023-03-31T00:54:48.222Z,16.90
2023-03-31T00:59:56.509Z,15.47
2023-03-31T01:05:02.656Z,16.87
2023-03-31T01:10:07.771Z,22.17
2023-03-31T01:15:11.278Z,21.50
2023-03-31T01:20:58.588Z,22.90
2023-03-31T01:26:22.997Z,19.77
2023-03-31T01:32:01.779Z,20.83
2023-03-31T01:37:33.566Z,19.63
2023-03-31T01:42:59.881Z,25.27
2023-03-31T01:48:13.588Z,21.13
2023-03-31T01:53:35.596Z,24.70
2023-03-31T01:58:56.580Z,19.53
2023-03-31T02:04:08.068Z,23.07
2023-03-31T02:09:16.860Z,22.73
2023-03-31T02:14:25.118Z,28.73
2023-03-31T02:19:37.201Z,24.60
2023-03-31T02:24:42.561Z,29.87
2023-03-31T02:29:46.268Z,24.13
2023-03-31T02:34:49.970Z,26.03
2023-03-31T02:39:56.260Z,18.57
2023-03-31T02:45:04.793Z,22.13
2023-03-31T02:50:09.054Z,22.87
2023-03-31T02:55:19.131Z,23.30
2023-03-31T03:00:50.133Z,22.10
2023-03-31T03:06:05.240Z,20.47
2023-03-31T03:11:22.191Z,17.23
2023-03-31T03:16:33.319Z,20.23
2023-03-31T03:21:36.762Z,18.37
2023-03-31T03:26:40.762Z,13.63
2023-03-31T03:31:44.274Z,13.30
2023-03-31T03:36:47.870Z,13.70
2023-03-31T03:41:51.149Z,12.93
2023-03-31T03:46:54.912Z,12.37
2023-03-31T03:51:58.135Z,15.00
2023-03-31T03:57:01.431Z,14.67
2023-03-31T04:02:05.022Z,12.40
2023-03-31T04:07:08.482Z,9.53
2023-03-31T04:12:11.854Z,11.80
2023-03-31T04:17:16.275Z,12.63
2023-03-31T04:22:21.093Z,10.50
2023-03-31T04:27:27.642Z,9.07
2023-03-31T04:32:33.343Z,13.13
2023-03-31T04:37:39.373Z,13.73
2023-03-31T04:42:43.321Z,11.83
2023-03-31T04:47:46.581Z,11.83
2023-03-31T04:52:49.793Z,11.17
2023-03-31T04:57:53.232Z,13.73
2023-03-31T05:02:57.448Z,12.67
2023-03-31T05:08:00.911Z,15.43
2023-03-31T05:13:04.470Z,10.80
2023-03-31T05:18:08.568Z,15.17
2023-03-31T05:23:12.001Z,12.17
2023-03-31T05:28:15.534Z,14.93
2023-03-31T05:33:19.167Z,19.37
2023-03-31T05:38:23.061Z,13.60
2023-03-31T05:43:26.605Z,14.10
2023-03-31T05:48:29.812Z,13.73
2023-03-31T05:53:35.100Z,16.03
2023-03-31T05:58:39.189Z,11.40
2023-03-31T06:03:42.885Z,11.90
2023-03-31T06:08:47.717Z,17.23
2023-03-31T06:13:51.343Z,14.13
2023-03-31T06:18:56.199Z,12.97
2023-03-31T06:24:00.823Z,14.43
2023-03-31T06:29:04.337Z,13.97
2023-03-31T06:34:07.914Z,11.90
2023-03-31T06:39:11.492Z,10.87
2023-03-31T06:44:17.079Z,17.17
2023-03-31T06:49:20.354Z,11.70
2023-03-31T06:54:23.626Z,13.40
2023-03-31T06:59:27.147Z,10.30
2023-03-31T07:04:30.832Z,14.23
2023-03-31T07:09:34.108Z,12.10
2023-03-31T07:14:37.783Z,13.73
2023-03-31T07:19:42.577Z,11.10
2023-03-31T07:24:45.632Z,8.83
2023-03-31T07:29:48.801Z,14.07
2023-03-31T07:34:51.958Z,14.47
2023-03-31T07:39:55.262Z,15.33
2023-03-31T07:44:58.618Z,12.60
2023-03-31T07:50:02.363Z,10.80
2023-03-31T07:55:06.650Z,12.57
2023-03-31T08:00:12.861Z,12.90
2023-03-31T08:05:18.767Z,12.60
2023-03-31T08:10:25.625Z,14.47
2023-03-31T08:15:29.312Z,8.23
2023-03-31T08:20:33.362Z,11.00
2023-03-31T08:25:36.627Z,10.00
2023-03-31T08:30:40.235Z,13.47
2023-03-31T08:35:44.208Z,9.07
2023-03-31T08:40:47.509Z,10.77
2023-03-31T08:45:56.094Z,10.57
2023-03-31T08:51:13.094Z,11.27
2023-03-31T08:56:20.059Z,7.80
2023-03-31T09:02:13.746Z,9.03
2023-03-31T09:07:41.849Z,11.10
2023-03-31T09:13:16.278Z,9.17
2023-03-31T09:18:26.807Z,7.43
2023-03-31T09:23:39.942Z,10.00
2023-03-31T09:28:43.962Z,10.70
2023-03-31T09:33:48.618Z,9.20
2023-03-31T09:38:52.018Z,9.37
2023-03-31T09:43:55.241Z,8.87
2023-03-31T09:49:11.298Z,11.47
2023-03-31T09:54:25.834Z,12.23
2023-03-31T09:59:38.070Z,8.37
2023-03-31T10:04:47.006Z,11.63
2023-03-31T10:09:50.331Z,9.57
2023-03-31T10:15:02.455Z,12.10
2023-03-31T10:20:41.808Z,12.67
2023-03-31T10:25:47.875Z,10.20
2023-03-31T10:30:54.090Z,13.03
2023-03-31T10:36:00.758Z,7.00
2023-03-31T10:41:05.085Z,9.77
2023-03-31T10:46:13.909Z,8.10
2023-03-31T10:51:19.902Z,6.23
2023-03-31T10:56:46.526Z,7.53
2023-03-31T11:02:22.596Z,11.60
2023-03-31T11:07:35.139Z,10.63
2023-03-31T11:12:59.390Z,12.03
2023-03-31T11:18:17.820Z,9.57
2023-03-31T11:23:27.208Z,11.43
2023-03-31T11:28:58.848Z,8.60
2023-03-31T11:34:23.418Z,6.47
2023-03-31T11:39:37.433Z,8.90
2023-03-31T11:44:46.963Z,8.40
2023-03-31T11:49:59.579Z,8.57
2023-03-31T11:55:19.360Z,7.57
2023-03-31T12:00:28.640Z,14.13
2023-03-31T12:05:34.742Z,8.80
2023-03-31T12:10:44.314Z,8.83
2023-03-31T12:16:11.003Z,6.85
2023-03-31T12:21:15.017Z,8.27
2023-03-31T12:26:41.928Z,8.50
2023-03-31T12:31:46.863Z,7.93
2023-03-31T12:37:13.875Z,8.90
2023-03-31T12:42:20.432Z,9.77
2023-03-31T12:48:04.943Z,6.30
2023-03-31T12:53:20.038Z,7.47
2023-03-31T12:58:35.342Z,10.57
2023-03-31T13:03:47.630Z,7.00
2023-03-31T13:08:56.915Z,9.07
2023-03-31T13:14:06.244Z,5.53
2023-03-31T13:19:13.343Z,6.93
2023-03-31T13:24:16.949Z,7.57
2023-03-31T13:29:25.926Z,8.63
2023-03-31T13:34:45.498Z,10.57
2023-03-31T13:40:08.560Z,6.97
2023-03-31T13:45:46.218Z,8.37
2023-03-31T13:51:15.625Z,10.40
2023-03-31T13:56:41.134Z,7.23
2023-03-31T14:01:56.463Z,6.37
2023-03-31T14:07:07.992Z,8.48
2023-03-31T14:12:35.456Z,7.63
2023-03-31T14:17:41.593Z,6.50
2023-03-31T14:23:09.487Z,8.07
2023-03-31T14:28:35.788Z,9.73
2023-03-31T14:33:47.142Z,10.60
2023-03-31T14:38:50.391Z,12.40
2023-03-31T14:43:54.023Z,13.77
2023-03-31T14:48:58.099Z,14.20
2023-03-31T14:54:02.606Z,11.37
2023-03-31T14:59:08.622Z,10.27
2023-03-31T15:04:16.403Z,11.57
2023-03-31T15:09:24.510Z,11.50
2023-03-31T15:14:34.473Z,8.43
2023-03-31T15:19:37.865Z,12.13
2023-03-31T15:24:41.415Z,10.90
2023-03-31T15:29:48.344Z,5.83
2023-03-31T15:34:52.505Z,5.63
2023-03-31T15:40:01.002Z,5.03
2023-03-31T15:45:27.588Z,5.47
2023-03-31T15:50:32.541Z,9.17
2023-03-31T16:00:52.953Z,14.20
2023-03-31T16:06:03.649Z,16.17
2023-03-31T16:11:23.905Z,17.80
2023-03-31T16:16:28.948Z,28.13
2023-03-31T16:21:47.860Z,39.77
2023-03-31T16:26:51.669Z,34.17
2023-03-31T16:32:12.609Z,35.83
2023-03-31T16:37:16.322Z,21.50
2023-03-31T16:42:21.117Z,29.50
2023-03-31T16:47:35.263Z,29.73
2023-03-31T16:52:40.083Z,30.57
2023-03-31T16:57:44.266Z,35.47
2023-03-31T17:02:48.190Z,42.23
2023-03-31T17:07:51.854Z,49.43
2023-03-31T17:12:56.863Z,52.57
2023-03-31T17:18:04.701Z,65.67
2023-03-31T17:23:08.399Z,55.03
2023-03-31T17:28:16.504Z,55.50
2023-03-31T17:33:23.980Z,54.90
2023-03-31T17:38:32.256Z,48.40
2023-03-31T17:43:39.612Z,43.83
2023-03-31T17:48:45.760Z,30.17
2023-03-31T17:53:50.914Z,29.70
2023-03-31T17:58:54.583Z,30.93
2023-03-31T18:03:58.923Z,73.03
2023-03-31T18:09:04.003Z,67.63
2023-03-31T18:14:09.125Z,54.60
2023-03-31T18:19:14.715Z,48.20
2023-03-31T18:24:20.342Z,45.53
2023-03-31T18:29:24.516Z,51.30
2023-03-31T18:34:29.987Z,42.43
2023-03-31T18:39:36.995Z,46.87
2023-03-31T18:44:42.753Z,26.80
2023-03-31T18:49:49.121Z,36.63
2023-03-31T18:54:55.002Z,27.83
2023-03-31T18:59:59.918Z,28.23
2023-03-31T19:05:05.757Z,22.83
2023-03-31T19:10:11.536Z,17.50
2023-03-31T19:15:17.889Z,19.67
2023-03-31T19:20:23.369Z,18.60
2023-03-31T19:25:28.974Z,19.17
2023-03-31T19:30:34.372Z,14.47
2023-03-31T19:35:43.845Z,13.93
2023-03-31T19:40:49.283Z,12.63
2023-03-31T19:45:55.890Z,10.90
2023-03-31T19:51:08.272Z,13.40
2023-03-31T19:56:16.454Z,13.03
2023-03-31T20:01:28.369Z,17.17
2023-03-31T20:06:36.463Z,15.73
2023-03-31T20:11:46.226Z,14.07
2023-03-31T20:16:53.695Z,16.87
2023-03-31T20:21:59.058Z,12.93
2023-03-31T20:27:04.675Z,20.37
2023-03-31T20:32:09.453Z,19.50
2023-03-31T20:37:14.554Z,22.67
2023-03-31T20:42:19.897Z,15.07
2023-03-31T20:47:26.602Z,16.97
2023-03-31T20:52:30.850Z,18.67
2023-03-31T20:57:34.987Z,17.53
2023-03-31T21:02:39.237Z,17.97
2023-03-31T21:07:42.556Z,19.47
2023-03-31T21:12:46.713Z,23.37
2023-03-31T21:17:51.036Z,22.70
2023-03-31T21:22:57.878Z,16.20
2023-03-31T21:28:01.546Z,16.23
2023-03-31T21:33:05.528Z,41.03
2023-03-31T21:38:08.848Z,71.07
2023-03-31T21:43:13.107Z,80.50
2023-03-31T21:48:16.332Z,57.27
2023-03-31T21:53:19.343Z,28.00
2023-03-31T21:58:25.669Z,26.67
2023-03-31T22:03:29.352Z,17.87
2023-03-31T22:08:32.919Z,52.13
2023-03-31T22:13:37.218Z,63.00
2023-03-31T22:18:40.609Z,59.97
2023-03-31T22:23:44.087Z,41.20
2023-03-31T22:28:47.285Z,43.60
2023-03-31T22:33:50.884Z,37.87
2023-03-31T22:38:54.141Z,32.33
2023-03-31T22:43:57.332Z,36.37
2023-03-31T22:49:00.430Z,29.00
2023-03-31T22:54:03.989Z,27.57
2023-03-31T22:59:08.241Z,25.47
2023-03-31T23:04:11.496Z,19.90
2023-03-31T23:09:14.858Z,25.77
2023-03-31T23:14:18.393Z,21.90
2023-03-31T23:19:22.134Z,26.07
2023-03-31T23:24:25.835Z,30.07
2023-03-31T23:29:31.082Z,26.97
2023-03-31T23:34:34.254Z,28.03
2023-03-31T23:39:39.193Z,25.60
2023-03-31T23:44:42.430Z,26.70
2023-03-31T23:49:45.515Z,28.67
2023-03-31T23:54:48.724Z,29.37
2023-03-31T23:59:52.871Z,25.37
